Time;durP1;ratioP1;P1;durP2;ratioP2;P2;SDS_P1;SDS_P2;PMS_P1;PMS_P2;Temp;Humidity;BMP_temperature;BMP_pressure;BME280_temperature;BME280_humidity;BME280_pressure;Samples;Min_cycle;Max_cycle;Signal;HPM_P1;HPM_P2
2021/12/01 00:02:12;;;;;;;47.67;22.98;;;;;;;-0.45;100.00;97431.66;5090968;28;20066;-75
2021/12/01 00:04:38;;;;;;;53.75;23.35;;;;;;;-0.43;100.00;97441.09;5091201;28;20048;-77
2021/12/01 00:07:06;;;;;;;48.83;23.35;;;;;;;-0.45;100.00;97432.47;5090516;28;20068;-76
2021/12/01 00:09:31;;;;;;;51.65;23.95;;;;;;;-0.53;100.00;97432.06;5090310;28;20028;-74
2021/12/01 00:11:57;;;;;;;49.20;23.27;;;;;;;-0.45;100.00;97458.53;5090492;28;20043;-75
2021/12/01 00:14:22;;;;;;;43.88;22.17;;;;;;;-0.45;100.00;97467.41;5090567;28;20604;-75
2021/12/01 00:16:48;;;;;;;46.53;23.10;;;;;;;-0.52;100.00;97464.03;5091035;28;20031;-75
2021/12/01 00:19:13;;;;;;;47.58;24.30;;;;;;;-0.54;100.00;97471.50;5092415;28;20385;-75
2021/12/01 00:21:38;;;;;;;49.72;24.77;;;;;;;-0.50;100.00;97472.66;5090716;28;20377;-74
2021/12/01 00:24:04;;;;;;;36.47;18.48;;;;;;;-0.46;100.00;97471.13;5090997;28;20477;-75
2021/12/01 00:26:29;;;;;;;43.75;21.10;;;;;;;-0.34;100.00;97469.22;5090912;28;20023;-75
2021/12/01 00:28:55;;;;;;;42.10;19.08;;;;;;;-0.42;100.00;97472.28;5090554;28;20020;-75
2021/12/01 00:31:20;;;;;;;32.97;14.57;;;;;;;-0.44;100.00;97482.47;5090355;28;20494;-75
2021/12/01 00:33:45;;;;;;;25.20;11.77;;;;;;;-0.46;100.00;97473.81;5090895;28;20024;-74
2021/12/01 00:36:13;;;;;;;24.25;11.85;;;;;;;-0.43;100.00;97480.56;5090633;28;20020;-75
2021/12/01 00:38:42;;;;;;;20.98;10.88;;;;;;;-0.49;100.00;97484.22;5090181;28;20058;-75
2021/12/01 00:41:08;;;;;;;21.33;10.77;;;;;;;-0.44;100.00;97482.47;5090285;28;20106;-75
2021/12/01 00:43:36;;;;;;;24.50;10.07;;;;;;;-0.50;100.00;97488.75;5090636;28;20032;-75
2021/12/01 00:46:14;;;;;;;24.83;10.45;;;;;;;-0.46;100.00;97483.75;5093546;28;20031;-74
2021/12/01 00:48:40;;;;;;;25.77;12.40;;;;;;;-0.54;100.00;97501.06;5092058;28;20037;-75
2021/12/01 00:51:05;;;;;;;20.20;11.05;;;;;;;-0.65;100.00;97502.69;5091182;28;20469;-76
2021/12/01 00:53:31;;;;;;;21.52;11.95;;;;;;;-0.75;100.00;97496.28;5091087;28;20028;-74
2021/12/01 00:55:57;;;;;;;28.05;12.93;;;;;;;-0.83;100.00;97502.00;5088958;28;20173;-75
2021/12/01 00:58:22;;;;;;;31.88;15.13;;;;;;;-0.88;100.00;97499.22;5089676;28;20143;-75
2021/12/01 01:00:49;;;;;;;27.65;12.00;;;;;;;-0.87;100.00;97498.13;5089660;28;20027;-75
2021/12/01 01:03:15;;;;;;;26.65;12.05;;;;;;;-0.92;100.00;97512.28;5090768;28;20469;-76
2021/12/01 01:05:41;;;;;;;23.50;12.07;;;;;;;-1.00;100.00;97499.19;5090403;28;20042;-74
2021/12/01 01:08:07;;;;;;;24.27;12.13;;;;;;;-0.95;100.00;97514.59;5094801;28;20051;-76
2021/12/01 01:18:40;;;;;;;25.00;12.15;;;;;;;-0.98;100.00;97512.41;5070359;28;20098;-75
2021/12/01 01:21:06;;;;;;;24.10;11.63;;;;;;;-0.98;100.00;97513.22;5075806;28;20466;-76
2021/12/01 01:23:33;;;;;;;20.08;12.00;;;;;;;-1.07;100.00;97519.97;5079210;28;20154;-75
2021/12/01 01:26:00;;;;;;;21.33;11.05;;;;;;;-1.07;100.00;97512.72;5074146;28;20024;-74
2021/12/01 01:28:26;;;;;;;23.67;11.95;;;;;;;-0.97;100.00;97530.94;5072274;28;20111;-74
2021/12/01 01:30:53;;;;;;;21.58;11.98;;;;;;;-1.03;100.00;97536.44;5073345;28;20190;-76
2021/12/01 01:33:20;;;;;;;22.83;11.63;;;;;;;-0.96;100.00;97537.94;5092753;28;20035;-75
2021/12/01 01:35:46;;;;;;;23.75;11.60;;;;;;;-1.07;100.00;97523.44;5092018;28;20017;-76
2021/12/01 01:38:11;;;;;;;21.25;11.40;;;;;;;-1.10;100.00;97520.44;5093977;28;20109;-74
2021/12/01 01:40:37;;;;;;;21.38;11.00;;;;;;;-1.17;100.00;97525.09;5095575;28;20030;-76
2021/12/01 01:43:04;;;;;;;20.42;10.88;;;;;;;-1.19;100.00;97521.84;5095008;28;20049;-75
2021/12/01 01:45:29;;;;;;;27.08;13.25;;;;;;;-1.16;100.00;97516.78;5093303;28;20020;-75
2021/12/01 01:48:04;;;;;;;21.73;11.75;;;;;;;-1.15;100.00;97512.25;5093447;28;20024;-74
2021/12/01 01:50:37;;;;;;;34.23;15.37;;;;;;;-1.14;100.00;97509.34;5092961;28;20016;-75
2021/12/01 01:53:12;;;;;;;27.02;13.25;;;;;;;-1.10;100.00;97510.50;5094081;28;20268;-75
2021/12/01 01:55:44;;;;;;;31.45;14.57;;;;;;;-1.06;100.00;97510.84;5094020;28;20047;-75
2021/12/01 01:58:10;;;;;;;27.73;14.25;;;;;;;-1.16;100.00;97511.44;5093939;28;20495;-75
2021/12/01 02:00:51;;;;;;;20.50;10.55;;;;;;;-1.26;100.00;97495.13;5093122;28;20032;-75
2021/12/01 02:03:19;;;;;;;23.40;11.05;;;;;;;-1.28;100.00;97507.91;5093727;28;20493;-75
2021/12/01 02:05:44;;;;;;;20.17;10.95;;;;;;;-1.30;100.00;97510.03;5093144;28;20039;-74
2021/12/01 02:08:17;;;;;;;24.70;10.88;;;;;;;-1.39;100.00;97500.69;5092686;28;20028;-76
2021/12/01 02:10:46;;;;;;;23.67;9.88;;;;;;;-1.26;100.00;97507.72;5092036;28;20479;-77
2021/12/01 02:13:12;;;;;;;21.25;9.75;;;;;;;-1.25;100.00;97491.38;5092812;28;20053;-74
2021/12/01 02:15:37;;;;;;;25.50;10.48;;;;;;;-1.33;100.00;97497.09;5092966;28;20684;-75
2021/12/01 02:18:03;;;;;;;21.77;10.05;;;;;;;-1.40;100.00;97493.69;5093243;28;20389;-75
2021/12/01 02:20:29;;;;;;;22.73;10.73;;;;;;;-1.38;100.00;97486.22;5093347;28;20413;-74
2021/12/01 02:22:58;;;;;;;22.08;10.65;;;;;;;-1.37;100.00;97485.19;5093313;28;20134;-76
2021/12/01 02:25:24;;;;;;;28.35;11.23;;;;;;;-1.30;100.00;97483.22;5093406;28;20439;-74
2021/12/01 02:27:50;;;;;;;26.25;11.18;;;;;;;-1.29;100.00;97498.25;5093647;28;20503;-75
2021/12/01 02:30:15;;;;;;;21.92;11.18;;;;;;;-1.27;100.00;97501.53;5094503;28;20035;-75
2021/12/01 02:32:41;;;;;;;28.88;11.48;;;;;;;-1.25;100.00;97486.00;5094832;28;20127;-75
2021/12/01 02:35:07;;;;;;;33.45;11.75;;;;;;;-1.10;100.00;97483.66;5096006;28;20028;-76
2021/12/01 02:37:35;;;;;;;27.83;10.77;;;;;;;-1.08;100.00;97486.97;5097380;28;20039;-76
2021/12/01 02:40:00;;;;;;;32.78;12.07;;;;;;;-0.99;100.00;97479.38;5096366;28;20028;-76
2021/12/01 02:42:26;;;;;;;32.53;12.23;;;;;;;-0.95;100.00;97477.84;5094696;28;20039;-75
2021/12/01 02:44:51;;;;;;;27.45;10.52;;;;;;;-0.83;100.00;97486.72;5093146;28;20077;-76
2021/12/01 02:47:17;;;;;;;31.92;11.48;;;;;;;-0.72;100.00;97495.81;5094911;28;20013;-75
2021/12/01 02:49:42;;;;;;;25.80;10.70;;;;;;;-0.59;100.00;97495.56;5091856;28;20032;-75
2021/12/01 02:52:08;;;;;;;26.35;10.63;;;;;;;-0.64;100.00;97503.50;5091592;28;20020;-77
2021/12/01 02:54:33;;;;;;;27.15;9.68;;;;;;;-0.53;100.00;97499.19;5091595;28;20037;-74
2021/12/01 02:57:00;;;;;;;31.45;11.23;;;;;;;-0.50;100.00;97491.44;5091499;28;20047;-74
2021/12/01 02:59:26;;;;;;;33.63;12.48;;;;;;;-0.52;100.00;97501.63;5091387;28;20554;-75
2021/12/01 03:01:54;;;;;;;55.38;14.90;;;;;;;-0.48;100.00;97489.34;5091577;28;20401;-74
2021/12/01 03:04:21;;;;;;;38.20;16.08;;;;;;;-0.46;100.00;97495.31;5092474;28;20123;-76
2021/12/01 03:06:49;;;;;;;38.60;14.98;;;;;;;-0.51;100.00;97497.06;5092193;28;20658;-76
2021/12/01 03:09:15;;;;;;;38.85;14.30;;;;;;;-0.54;100.00;97490.31;5092620;28;20480;-75
2021/12/01 03:11:43;;;;;;;38.15;15.95;;;;;;;-0.59;100.00;97490.19;5092497;28;20039;-74
2021/12/01 03:14:14;;;;;;;40.50;16.50;;;;;;;-0.63;100.00;97491.72;5093547;28;20028;-75
2021/12/01 03:16:40;;;;;;;49.40;18.27;;;;;;;-0.55;100.00;97494.84;5095532;28;20048;-75
2021/12/01 03:19:06;;;;;;;53.85;21.80;;;;;;;-0.60;100.00;97496.63;5092154;28;20097;-75
2021/12/01 03:21:35;;;;;;;65.10;23.02;;;;;;;-0.74;100.00;97488.00;5091342;28;20032;-75
2021/12/01 03:24:00;;;;;;;57.97;23.42;;;;;;;-0.72;100.00;97485.09;5090972;28;20020;-75
2021/12/01 03:26:29;;;;;;;65.35;25.83;;;;;;;-0.68;100.00;97495.09;5091538;28;20026;-75
2021/12/01 03:28:54;;;;;;;56.83;22.85;;;;;;;-0.68;100.00;97491.59;5091651;28;20070;-75
2021/12/01 03:31:20;;;;;;;66.90;24.75;;;;;;;-0.75;100.00;97496.28;5092263;28;20107;-77
2021/12/01 03:33:45;;;;;;;60.28;24.98;;;;;;;-0.78;100.00;97486.00;5092790;28;20028;-74
2021/12/01 03:36:11;;;;;;;73.93;27.50;;;;;;;-0.78;100.00;97488.69;5090191;28;20411;-75
2021/12/01 03:38:36;;;;;;;74.32;28.92;;;;;;;-0.86;100.00;97491.72;5093087;28;20028;-76
2021/12/01 03:41:01;;;;;;;91.10;36.75;;;;;;;-0.82;100.00;97511.69;5096257;28;20020;-75
2021/12/01 03:43:27;;;;;;;83.78;33.88;;;;;;;-0.85;100.00;97502.25;5091379;28;20093;-75
2021/12/01 03:45:53;;;;;;;58.28;23.35;;;;;;;-0.84;100.00;97503.03;5091615;28;20136;-75
2021/12/01 03:48:20;;;;;;;54.35;21.08;;;;;;;-0.89;100.00;97500.25;5090476;28;20115;-74
2021/12/01 03:50:49;;;;;;;50.28;21.10;;;;;;;-0.87;100.00;97498.13;5091687;28;20133;-75
2021/12/01 03:53:16;;;;;;;49.97;21.08;;;;;;;-0.87;100.00;97493.59;5091731;28;20028;-74
2021/12/01 03:55:43;;;;;;;51.75;23.17;;;;;;;-0.77;100.00;97491.16;5092022;28;20040;-76
2021/12/01 03:58:08;;;;;;;63.22;25.20;;;;;;;-0.70;100.00;97474.91;5085573;28;20755;-75
2021/12/01 04:00:34;;;;;;;56.70;24.27;;;;;;;-0.81;100.00;97476.56;5090423;28;20039;-74
2021/12/01 04:02:59;;;;;;;60.83;25.20;;;;;;;-0.79;100.00;97476.34;5090780;28;20039;-75
2021/12/01 04:05:26;;;;;;;56.45;25.27;;;;;;;-0.78;100.00;97475.25;5090983;28;20024;-75
2021/12/01 04:07:51;;;;;;;60.40;25.27;;;;;;;-0.73;100.00;97470.03;5090792;28;20081;-75
2021/12/01 04:10:17;;;;;;;59.35;25.08;;;;;;;-0.72;100.00;97472.44;5091262;28;20500;-76
2021/12/01 04:12:43;;;;;;;61.53;24.98;;;;;;;-0.73;100.00;97467.34;5090847;28;20109;-76
2021/12/01 04:15:10;;;;;;;64.55;26.23;;;;;;;-0.67;100.00;97469.06;5090375;28;20038;-74
2021/12/01 04:17:37;;;;;;;62.97;26.45;;;;;;;-0.66;100.00;97468.81;5091259;28;20024;-75
2021/12/01 04:20:04;;;;;;;62.47;25.77;;;;;;;-0.67;100.00;97466.41;5090809;28;20020;-76
2021/12/01 04:22:29;;;;;;;61.63;25.33;;;;;;;-0.71;100.00;97466.03;5090516;28;20035;-75
2021/12/01 04:24:55;;;;;;;81.50;31.38;;;;;;;-0.74;100.00;97468.38;5090850;28;20047;-75
2021/12/01 04:27:20;;;;;;;73.18;29.88;;;;;;;-0.66;100.00;97468.03;5094720;28;20055;-76
2021/12/01 04:29:45;;;;;;;47.22;18.05;;;;;;;-0.61;100.00;97465.44;5092279;28;20028;-75
2021/12/01 04:32:11;;;;;;;41.17;15.10;;;;;;;-0.57;100.00;97466.63;5093149;28;20024;-75
2021/12/01 04:34:37;;;;;;;23.25;10.30;;;;;;;-0.39;100.00;97463.75;5093181;28;20024;-75
2021/12/01 04:37:04;;;;;;;22.20;7.15;;;;;;;-0.33;100.00;97468.19;5092291;28;20051;-78
2021/12/01 04:39:30;;;;;;;16.45;9.05;;;;;;;-0.27;100.00;97464.53;5092606;28;20072;-76
2021/12/01 04:41:57;;;;;;;23.05;7.65;;;;;;;-0.27;100.00;97466.41;5090619;28;20481;-75
2021/12/01 04:44:24;;;;;;;26.70;9.65;;;;;;;-0.25;100.00;97467.78;5090068;28;20028;-75
2021/12/01 04:46:54;;;;;;;19.35;7.63;;;;;;;-0.23;100.00;97468.38;5090460;28;20024;-75
2021/12/01 04:49:21;;;;;;;14.48;6.50;;;;;;;-0.19;100.00;97466.84;5089747;28;20016;-75
2021/12/01 04:51:54;;;;;;;11.85;6.38;;;;;;;-0.20;100.00;97462.53;5089304;28;20020;-75
2021/12/01 04:54:20;;;;;;;17.00;7.65;;;;;;;-0.20;100.00;97461.72;5090848;28;20031;-73
2021/12/01 04:56:47;;;;;;;15.32;6.55;;;;;;;-0.20;100.00;97464.41;5093835;28;20032;-74
2021/12/01 04:59:13;;;;;;;15.40;6.53;;;;;;;-0.20;100.00;97475.97;5094934;28;20026;-74
2021/12/01 05:01:40;;;;;;;12.85;6.13;;;;;;;-0.27;100.00;97477.16;5094737;28;20039;-75
2021/12/01 05:04:07;;;;;;;15.85;6.00;;;;;;;-0.27;100.00;97477.16;5094347;28;20411;-75
2021/12/01 05:06:32;;;;;;;16.55;7.90;;;;;;;-0.27;100.00;97479.84;5094459;28;20024;-76
2021/12/01 05:08:58;;;;;;;20.73;7.25;;;;;;;-0.26;100.00;97478.78;5095859;28;20107;-77
2021/12/01 05:11:24;;;;;;;17.40;6.88;;;;;;;-0.31;100.00;97475.97;5098405;28;20500;-74
2021/12/01 05:13:50;;;;;;;21.33;7.10;;;;;;;-0.25;100.00;97481.22;5092595;28;20036;-76
2021/12/01 05:16:15;;;;;;;23.23;6.20;;;;;;;-0.22;100.00;97483.44;5093867;28;20020;-75
2021/12/01 05:18:41;;;;;;;12.93;6.03;;;;;;;-0.25;100.00;97486.59;5094341;28;20039;-75
2021/12/01 05:21:06;;;;;;;11.13;5.18;;;;;;;-0.16;100.00;97492.44;5094419;28;20056;-75
2021/12/01 05:23:32;;;;;;;14.90;5.22;;;;;;;-0.11;100.00;97484.47;5097287;28;20362;-75
2021/12/01 05:25:57;;;;;;;11.75;5.45;;;;;;;-0.10;100.00;97478.88;5094432;28;20039;-74
2021/12/01 05:28:23;;;;;;;11.43;5.47;;;;;;;-0.08;100.00;97476.75;5094361;28;20052;-75
2021/12/01 05:30:48;;;;;;;10.35;5.07;;;;;;;-0.03;100.00;97468.75;5094334;28;20787;-76
2021/12/01 05:33:15;;;;;;;11.57;5.30;;;;;;;0.11;100.00;97473.84;5093615;28;20023;-75
2021/12/01 05:35:42;;;;;;;12.05;6.20;;;;;;;0.26;100.00;97488.41;5094018;28;20036;-75
2021/12/01 05:38:09;;;;;;;10.13;5.65;;;;;;;0.36;100.00;97480.50;5093755;28;20028;-75
2021/12/01 05:40:36;;;;;;;13.15;6.35;;;;;;;0.32;100.00;97486.59;5092726;28;20032;-74
2021/12/01 05:43:02;;;;;;;13.20;5.60;;;;;;;0.35;100.00;97486.13;5092895;28;20039;-75
2021/12/01 05:45:27;;;;;;;9.88;5.15;;;;;;;0.33;100.00;97493.63;5093112;28;20031;-74
2021/12/01 05:47:53;;;;;;;12.45;5.43;;;;;;;0.32;100.00;97486.59;5093731;28;20020;-76
2021/12/01 05:50:18;;;;;;;11.95;6.38;;;;;;;0.18;100.00;97485.28;5091483;28;20008;-76
2021/12/01 05:52:44;;;;;;;16.85;6.30;;;;;;;0.17;100.00;97475.59;5091209;28;20048;-75
2021/12/01 05:55:10;;;;;;;17.08;7.03;;;;;;;0.23;100.00;97482.69;5091017;28;20079;-75
2021/12/01 05:57:36;;;;;;;13.35;5.65;;;;;;;0.33;100.00;97488.25;5091605;28;20027;-75
2021/12/01 06:00:05;;;;;;;14.55;6.03;;;;;;;0.40;100.00;97486.22;5091963;28;20027;-75
2021/12/01 06:02:31;;;;;;;15.25;6.60;;;;;;;0.37;100.00;97484.03;5094471;28;20059;-77
2021/12/01 06:04:56;;;;;;;16.10;6.80;;;;;;;0.49;100.00;97479.41;5091683;28;20562;-77
2021/12/01 06:07:21;;;;;;;11.80;5.68;;;;;;;0.66;100.00;97474.81;5092717;28;20036;-75
2021/12/01 06:09:47;;;;;;;13.75;5.78;;;;;;;0.67;100.00;97484.53;5094384;28;20035;-75
2021/12/01 06:12:13;;;;;;;11.13;5.57;;;;;;;0.84;100.00;97473.78;5095047;28;20031;-74
2021/12/01 06:14:44;;;;;;;13.65;5.07;;;;;;;0.91;100.00;97485.19;5095257;28;20016;-73
2021/12/01 06:17:10;;;;;;;9.85;5.18;;;;;;;0.87;100.00;97484.88;5090167;28;20016;-74
2021/12/01 06:19:37;;;;;;;12.25;6.13;;;;;;;0.95;100.00;97486.31;5091896;28;20647;-74
2021/12/01 06:22:03;;;;;;;10.80;6.45;;;;;;;0.97;100.00;97487.72;5090273;28;20141;-73
2021/12/01 06:24:28;;;;;;;16.35;7.35;;;;;;;0.98;100.00;97480.44;5088782;28;20086;-73
2021/12/01 06:26:54;;;;;;;30.35;12.68;;;;;;;0.87;100.00;97492.13;5091845;28;20032;-74
2021/12/01 06:29:19;;;;;;;42.28;15.90;;;;;;;0.63;100.00;97491.47;5097650;28;20047;-81
2021/12/01 06:31:45;;;;;;;47.15;19.13;;;;;;;0.49;100.00;97490.16;5107958;28;20114;-76
2021/12/01 06:34:10;;;;;;;44.97;19.35;;;;;;;0.38;100.00;97485.63;5112934;28;20104;-74
2021/12/01 06:36:36;;;;;;;46.38;18.98;;;;;;;0.29;100.00;97481.72;5113290;28;20031;-72
2021/12/01 06:39:03;;;;;;;44.78;18.33;;;;;;;0.27;100.00;97490.03;5091578;28;20429;-75
2021/12/01 06:41:28;;;;;;;42.08;17.02;;;;;;;0.23;100.00;97493.44;5092543;28;20035;-75
2021/12/01 06:43:53;;;;;;;33.00;15.00;;;;;;;0.23;100.00;97504.19;5093651;28;20028;-75
2021/12/01 06:46:19;;;;;;;43.75;16.20;;;;;;;0.31;100.00;97506.50;5092096;28;20054;-75
2021/12/01 06:48:44;;;;;;;41.80;15.45;;;;;;;0.41;100.00;97501.28;5093149;28;20105;-75
2021/12/01 06:51:09;;;;;;;34.08;13.65;;;;;;;0.49;100.00;97504.41;5093565;28;20169;-74
2021/12/01 06:53:35;;;;;;;31.48;13.30;;;;;;;0.60;100.00;97505.41;5093576;28;20028;-75
2021/12/01 06:56:00;;;;;;;38.28;14.48;;;;;;;0.70;100.00;97505.56;5094622;28;20086;-74
2021/12/01 06:58:26;;;;;;;47.17;18.55;;;;;;;0.74;100.00;97498.66;5094292;28;20481;-75
2021/12/01 07:00:51;;;;;;;47.97;17.67;;;;;;;0.76;100.00;97503.78;5094744;28;20489;-74
2021/12/01 07:03:17;;;;;;;46.22;17.25;;;;;;;0.90;100.00;97500.53;5097402;28;20032;-78
2021/12/01 07:05:42;;;;;;;43.65;16.50;;;;;;;0.98;100.00;97508.19;5097497;28;20056;-75
2021/12/01 07:08:08;;;;;;;40.13;14.93;;;;;;;1.13;100.00;97509.50;5092755;28;20115;-74
2021/12/01 07:10:33;;;;;;;45.70;16.73;;;;;;;1.16;100.00;97504.41;5093148;28;20016;-75
2021/12/01 07:12:59;;;;;;;46.47;15.00;;;;;;;1.23;100.00;97499.69;5094515;28;20058;-78
2021/12/01 07:15:24;;;;;;;42.67;16.50;;;;;;;1.22;100.00;97497.25;5093154;28;20028;-75
2021/12/01 07:17:49;;;;;;;34.35;14.18;;;;;;;1.29;100.00;97506.78;5091829;28;20027;-73
2021/12/01 07:20:15;;;;;;;20.42;11.00;;;;;;;1.35;100.00;97499.56;5092097;28;20043;-74
2021/12/01 07:22:44;;;;;;;29.13;11.90;;;;;;;1.47;100.00;97503.00;5092336;28;20028;-74
2021/12/01 07:25:11;;;;;;;35.65;16.13;;;;;;;1.56;100.00;97507.72;5092612;28;20036;-74
2021/12/01 07:27:37;;;;;;;45.90;17.88;;;;;;;1.67;100.00;97511.34;5092626;28;20461;-75
2021/12/01 07:30:03;;;;;;;44.67;18.63;;;;;;;2.01;100.00;97515.56;5092927;28;20024;-77
2021/12/01 07:32:28;;;;;;;41.33;17.75;;;;;;;2.23;99.80;97514.72;5092785;28;20032;-74
2021/12/01 07:34:55;;;;;;;64.40;23.67;;;;;;;2.31;97.64;97522.38;5092555;28;20031;-74
2021/12/01 07:37:20;;;;;;;59.70;24.75;;;;;;;2.50;97.04;97518.25;5092019;28;20028;-75
2021/12/01 07:39:46;;;;;;;57.15;22.65;;;;;;;2.73;95.54;97520.63;5092143;28;20381;-75
2021/12/01 07:42:13;;;;;;;49.60;19.33;;;;;;;3.10;93.28;97509.91;5092403;28;20024;-74
2021/12/01 07:44:39;;;;;;;57.45;21.05;;;;;;;3.71;90.80;97506.50;5092560;28;20036;-74
2021/12/01 07:47:05;;;;;;;50.35;19.88;;;;;;;4.24;87.08;97515.38;5092645;28;20020;-75
2021/12/01 07:49:31;;;;;;;53.65;21.15;;;;;;;5.40;83.18;97513.63;5092862;28;20383;-75
2021/12/01 07:51:56;;;;;;;56.88;22.35;;;;;;;5.42;80.93;97509.84;5092141;28;20023;-73
2021/12/01 07:54:22;;;;;;;48.78;21.45;;;;;;;4.88;82.12;97510.38;5092259;28;20028;-74
2021/12/01 07:56:47;;;;;;;53.85;18.52;;;;;;;4.62;82.56;97503.28;5092409;28;20054;-74
2021/12/01 07:59:15;;;;;;;47.97;20.08;;;;;;;4.33;84.58;97514.59;5091982;28;20024;-74
2021/12/01 08:01:45;;;;;;;39.72;15.65;;;;;;;4.11;85.98;97495.03;5092411;28;20060;-74
2021/12/01 08:04:11;;;;;;;36.63;15.07;;;;;;;3.85;84.59;97506.84;5092000;28;20111;-74
2021/12/01 08:06:38;;;;;;;46.97;19.05;;;;;;;3.36;87.50;97514.38;5092434;28;20073;-75
2021/12/01 08:09:04;;;;;;;53.38;20.17;;;;;;;2.92;91.32;97519.19;5093889;28;20023;-75
2021/12/01 08:11:30;;;;;;;42.47;18.40;;;;;;;3.08;89.32;97504.75;5091403;28;20035;-76
2021/12/01 08:13:55;;;;;;;45.17;16.98;;;;;;;3.08;88.82;97498.50;5091987;28;20024;-74
2021/12/01 08:16:21;;;;;;;41.88;16.95;;;;;;;3.18;89.37;97501.28;5092123;28;20077;-74
2021/12/01 08:18:51;;;;;;;34.17;15.52;;;;;;;3.30;89.08;97509.22;5092141;28;20016;-74
2021/12/01 08:21:18;;;;;;;38.78;14.52;;;;;;;3.40;88.42;97504.69;5093802;28;20047;-74
2021/12/01 08:23:43;;;;;;;47.85;17.63;;;;;;;3.56;88.88;97503.72;5095713;28;20076;-78
2021/12/01 08:26:09;;;;;;;37.78;16.58;;;;;;;3.70;88.46;97501.34;5096643;28;20079;-76
2021/12/01 08:28:34;;;;;;;40.22;17.98;;;;;;;3.78;88.68;97500.84;5091536;28;20051;-77
2021/12/01 08:31:00;;;;;;;46.17;17.88;;;;;;;3.74;87.44;97494.34;5091198;28;20034;-74
2021/12/01 08:33:25;;;;;;;46.55;18.95;;;;;;;3.85;87.18;97501.44;5091023;28;20030;-77
2021/12/01 08:35:51;;;;;;;49.78;18.35;;;;;;;3.70;88.29;97499.47;5091812;28;20385;-76
2021/12/01 08:38:16;;;;;;;32.67;14.25;;;;;;;3.64;87.77;97499.69;5091049;28;20482;-77
2021/12/01 08:40:42;;;;;;;39.25;15.30;;;;;;;3.59;87.65;97502.38;5092354;28;20381;-75
2021/12/01 08:43:07;;;;;;;37.58;15.02;;;;;;;3.45;88.00;97493.09;5092640;28;20032;-75
2021/12/01 08:45:33;;;;;;;40.22;15.50;;;;;;;3.37;89.75;97502.50;5094820;28;20031;-77
2021/12/01 08:47:58;;;;;;;35.70;15.88;;;;;;;3.57;89.26;97501.84;5091259;28;20031;-74
2021/12/01 08:50:24;;;;;;;43.47;16.00;;;;;;;3.39;89.83;97494.94;5090771;28;20020;-76
2021/12/01 08:52:49;;;;;;;39.55;15.77;;;;;;;3.29;91.11;97491.38;5090881;28;20062;-75
2021/12/01 08:55:15;;;;;;;42.80;16.70;;;;;;;3.56;90.80;97489.38;5094015;28;20087;-75
2021/12/01 08:57:42;;;;;;;36.10;15.90;;;;;;;3.55;91.01;97495.84;5094234;28;20020;-75
2021/12/01 09:00:08;;;;;;;38.10;14.63;;;;;;;3.69;90.76;97494.31;5090725;28;20378;-75
2021/12/01 09:02:34;;;;;;;35.67;15.50;;;;;;;3.93;90.38;97502.81;5090784;28;20028;-78
2021/12/01 09:04:59;;;;;;;41.35;15.95;;;;;;;4.05;89.00;97506.91;5092587;28;20035;-74
2021/12/01 09:07:25;;;;;;;42.22;16.85;;;;;;;3.87;90.31;97499.28;5091148;28;20028;-76
2021/12/01 09:09:51;;;;;;;39.05;14.40;;;;;;;4.01;89.77;97510.44;5091207;28;20081;-75
2021/12/01 09:12:18;;;;;;;26.20;12.25;;;;;;;4.00;86.80;97504.22;5090532;28;20117;-75
2021/12/01 09:14:44;;;;;;;30.95;12.75;;;;;;;4.10;86.81;97503.44;5090906;28;20514;-75
2021/12/01 09:17:12;;;;;;;49.92;19.40;;;;;;;4.11;86.31;97505.03;5091369;28;20028;-75
2021/12/01 09:19:38;;;;;;;37.38;13.43;;;;;;;4.20;85.53;97501.56;5091113;28;20537;-75
2021/12/01 09:22:04;;;;;;;38.15;12.23;;;;;;;4.21;85.14;97497.78;5090689;28;20028;-74
2021/12/01 09:24:30;;;;;;;42.35;14.02;;;;;;;4.19;86.74;97507.25;5090851;28;20409;-72
2021/12/01 09:26:56;;;;;;;33.38;14.63;;;;;;;4.25;85.83;97498.88;5091119;28;20044;-76
2021/12/01 09:29:22;;;;;;;47.17;17.48;;;;;;;4.20;85.73;97500.75;5091342;28;20029;-74
2021/12/01 09:31:48;;;;;;;41.92;17.00;;;;;;;4.04;86.90;97494.47;5090913;28;20438;-75
2021/12/01 09:34:14;;;;;;;39.60;16.63;;;;;;;4.09;87.41;97496.38;5090335;28;20028;-77
2021/12/01 09:36:40;;;;;;;33.38;15.07;;;;;;;3.94;87.48;97501.75;5090674;28;20028;-75
2021/12/01 09:39:06;;;;;;;40.17;15.63;;;;;;;3.87;88.06;97493.88;5090526;28;20534;-75
2021/12/01 09:41:32;;;;;;;48.35;19.20;;;;;;;3.87;88.94;97498.47;5091436;28;20020;-73
2021/12/01 09:43:58;;;;;;;38.35;14.80;;;;;;;3.97;88.39;97499.31;5095267;28;20056;-75
2021/12/01 09:46:24;;;;;;;31.98;14.15;;;;;;;3.94;88.88;97499.03;5094407;28;20051;-75
2021/12/01 09:48:49;;;;;;;40.97;14.48;;;;;;;4.05;88.54;97495.28;5094405;28;20020;-76
2021/12/01 09:51:17;;;;;;;49.47;16.30;;;;;;;3.96;89.48;97492.28;5093740;28;20419;-75
2021/12/01 09:53:44;;;;;;;43.67;15.10;;;;;;;3.84;89.40;97488.97;5094561;28;20035;-75
2021/12/01 09:56:10;;;;;;;41.60;15.77;;;;;;;3.84;89.71;97488.97;5094325;28;20044;-74
2021/12/01 09:58:36;;;;;;;42.13;17.20;;;;;;;3.88;89.75;97487.38;5096281;28;20081;-75
2021/12/01 10:01:06;;;;;;;48.38;16.20;;;;;;;3.80;90.40;97482.47;5094670;28;20063;-76
2021/12/01 10:03:32;;;;;;;34.47;13.63;;;;;;;3.82;90.81;97480.34;5095374;28;20032;-76
2021/12/01 10:06:03;;;;;;;28.60;14.18;;;;;;;4.02;89.54;97479.59;5098014;28;20099;-77
2021/12/01 10:08:35;;;;;;;36.70;14.68;;;;;;;4.13;89.50;97479.38;5100219;28;20066;-78
2021/12/01 10:11:08;;;;;;;36.20;14.82;;;;;;;4.19;89.29;97472.06;5099870;28;20094;-77
2021/12/01 10:13:37;;;;;;;30.77;12.75;;;;;;;4.43;87.77;97477.81;5098432;28;20028;-76
2021/12/01 10:16:06;;;;;;;23.67;11.23;;;;;;;4.55;87.48;97473.75;5099549;28;20035;-78
2021/12/01 10:18:42;;;;;;;21.75;9.05;;;;;;;4.67;87.32;97465.38;5100337;28;20432;-75
2021/12/01 10:21:16;;;;;;;24.00;9.98;;;;;;;4.71;87.11;97461.06;5094190;28;20119;-76
2021/12/01 10:23:54;;;;;;;22.00;9.73;;;;;;;4.66;87.59;97452.94;5093759;28;20032;-76
2021/12/01 10:26:29;;;;;;;20.13;8.82;;;;;;;4.76;86.85;97453.75;5093690;28;20493;-76
2021/12/01 10:28:57;;;;;;;19.15;8.45;;;;;;;4.90;86.53;97448.59;5093624;28;20111;-76
2021/12/01 10:31:44;;;;;;;22.90;9.48;;;;;;;5.08;86.24;97434.50;5093812;28;20512;-75
2021/12/01 10:34:17;;;;;;;21.75;10.02;;;;;;;5.03;86.87;97428.28;5092574;28;20449;-75
2021/12/01 10:36:44;;;;;;;34.17;11.35;;;;;;;4.96;87.05;97435.84;5097265;28;20051;-78
2021/12/01 10:39:10;;;;;;;25.40;10.90;;;;;;;5.13;87.63;97429.09;5098824;28;20035;-77
2021/12/01 10:41:37;;;;;;;23.02;10.60;;;;;;;5.14;86.51;97422.56;5093837;28;20028;-75
2021/12/01 10:44:14;;;;;;;26.00;11.25;;;;;;;5.10;86.42;97424.22;5093953;28;20016;-76
2021/12/01 10:46:50;;;;;;;34.03;13.07;;;;;;;5.22;86.46;97416.59;5093646;28;20488;-73
2021/12/01 10:49:30;;;;;;;33.17;13.40;;;;;;;5.32;86.30;97415.75;5096234;28;20477;-76
2021/12/01 10:51:55;;;;;;;31.27;12.88;;;;;;;5.47;85.76;97409.47;5099347;28;20119;-77
2021/12/01 10:54:21;;;;;;;35.80;14.50;;;;;;;5.42;85.90;97409.50;5095014;28;20028;-78
2021/12/01 10:57:06;;;;;;;31.35;13.60;;;;;;;5.44;86.46;97401.88;5093223;28;20032;-75
2021/12/01 10:59:46;;;;;;;36.55;14.32;;;;;;;5.43;86.26;97392.94;5092734;28;20036;-75
2021/12/01 11:02:12;;;;;;;31.02;13.98;;;;;;;5.33;87.65;97398.38;5092955;28;20036;-75
2021/12/01 11:04:43;;;;;;;30.63;12.40;;;;;;;5.28;87.76;97385.66;5092905;28;20036;-75
2021/12/01 11:07:23;;;;;;;29.88;13.55;;;;;;;5.12;89.58;97381.38;5093592;28;20040;-76
2021/12/01 11:10:12;;;;;;;28.67;12.68;;;;;;;5.17;89.90;97378.63;5072068;28;20117;-75
2021/12/01 11:12:38;;;;;;;29.02;12.90;;;;;;;5.18;90.58;97371.31;5073277;28;20114;-75
2021/12/01 11:15:49;;;;;;;30.85;12.95;;;;;;;5.46;88.86;97364.44;5074108;28;20017;-75
2021/12/01 11:18:18;;;;;;;30.17;12.10;;;;;;;5.47;88.24;97366.91;4991989;28;20034;-77
2021/12/01 11:20:50;;;;;;;28.65;12.05;;;;;;;5.63;87.33;97359.50;4990826;28;20447;-74
2021/12/01 11:23:21;;;;;;;29.95;11.77;;;;;;;5.56;87.56;97353.56;5037253;28;20108;-75
2021/12/01 11:25:55;;;;;;;26.48;10.68;;;;;;;5.48;91.80;97351.44;5073006;28;20028;-75